sensor_id;sensor_type;location;lat;lon;timestamp;pressure;altitude;pressure_sealevel;temperature;humidity
55470;BME280;41334;47.872;16.384;2024-01-16T00:02:28;97954.63;;;-0.56;43.35
55470;BME280;41334;47.872;16.384;2024-01-16T00:07:30;97958.56;;;-0.62;44.14
55470;BME280;41334;47.872;16.384;2024-01-16T00:12:34;97960.75;;;-0.78;45.02
55470;BME280;41334;47.872;16.384;2024-01-16T00:17:36;97963.81;;;-0.65;45.21
55470;BME280;41334;47.872;16.384;2024-01-16T00:22:38;97973.16;;;-0.66;46.92
55470;BME280;41334;47.872;16.384;2024-01-16T00:27:40;97963.06;;;-1.17;51.39
55470;BME280;41334;47.872;16.384;2024-01-16T00:32:42;97964.31;;;-0.77;50.69
55470;BME280;41334;47.872;16.384;2024-01-16T00:37:44;97971.50;;;-1.14;52.18
55470;BME280;41334;47.872;16.384;2024-01-16T00:42:46;97965.38;;;-1.43;52.36
55470;BME280;41334;47.872;16.384;2024-01-16T00:47:48;97978.25;;;-1.63;52.29
55470;BME280;41334;47.872;16.384;2024-01-16T00:52:51;97982.09;;;-1.45;51.00
55470;BME280;41334;47.872;16.384;2024-01-16T00:57:52;97977.88;;;-1.56;49.98
55470;BME280;41334;47.872;16.384;2024-01-16T01:02:55;97988.28;;;-1.39;48.77
55470;BME280;41334;47.872;16.384;2024-01-16T01:07:57;97999.06;;;-1.48;48.01
55470;BME280;41334;47.872;16.384;2024-01-16T01:12:59;97995.84;;;-1.31;47.77
55470;BME280;41334;47.872;16.384;2024-01-16T01:18:01;97993.38;;;-1.14;46.78
55470;BME280;41334;47.872;16.384;2024-01-16T01:23:04;97999.03;;;-1.10;46.18
55470;BME280;41334;47.872;16.384;2024-01-16T01:28:06;97997.56;;;-1.21;46.15
55470;BME280;41334;47.872;16.384;2024-01-16T01:33:07;98016.22;;;-1.23;45.60
55470;BME280;41334;47.872;16.384;2024-01-16T01:38:10;98021.03;;;-1.34;45.33
55470;BME280;41334;47.872;16.384;2024-01-16T01:43:30;98020.44;;;-1.31;44.30
55470;BME280;41334;47.872;16.384;2024-01-16T01:48:32;98028.28;;;-1.24;44.08
55470;BME280;41334;47.872;16.384;2024-01-16T01:53:35;98035.03;;;-1.60;43.77
55470;BME280;41334;47.872;16.384;2024-01-16T01:58:38;98019.53;;;-1.27;43.71
55470;BME280;41334;47.872;16.384;2024-01-16T02:31:40;98058.38;;;-1.67;44.43
55470;BME280;41334;47.872;16.384;2024-01-16T02:36:42;98060.50;;;-1.64;44.74
55470;BME280;41334;47.872;16.384;2024-01-16T02:41:43;98067.28;;;-1.57;44.52
55470;BME280;41334;47.872;16.384;2024-01-16T02:46:45;98065.28;;;-1.51;44.37
55470;BME280;41334;47.872;16.384;2024-01-16T02:51:47;98065.59;;;-1.34;44.18
55470;BME280;41334;47.872;16.384;2024-01-16T02:56:50;98071.44;;;-1.40;44.39
55470;BME280;41334;47.872;16.384;2024-01-16T03:01:52;98084.97;;;-1.73;44.95
55470;BME280;41334;47.872;16.384;2024-01-16T03:06:54;98091.00;;;-1.33;44.29
55470;BME280;41334;47.872;16.384;2024-01-16T03:11:56;98092.31;;;-1.49;44.37
55470;BME280;41334;47.872;16.384;2024-01-16T03:17:03;98090.50;;;-1.35;43.93
55470;BME280;41334;47.872;16.384;2024-01-16T03:22:05;98095.09;;;-1.73;44.41
55470;BME280;41334;47.872;16.384;2024-01-16T03:27:07;98095.28;;;-1.46;44.02
55470;BME280;41334;47.872;16.384;2024-01-16T03:32:08;98086.53;;;-1.67;44.04
55470;BME280;41334;47.872;16.384;2024-01-16T03:37:10;98093.94;;;-1.48;43.42
55470;BME280;41334;47.872;16.384;2024-01-16T03:42:12;98102.94;;;-1.67;43.22
55470;BME280;41334;47.872;16.384;2024-01-16T03:47:16;98087.78;;;-1.59;42.83
55470;BME280;41334;47.872;16.384;2024-01-16T03:52:18;98078.84;;;-1.65;42.78
55470;BME280;41334;47.872;16.384;2024-01-16T03:57:20;98081.25;;;-1.39;42.29
55470;BME280;41334;47.872;16.384;2024-01-16T04:02:22;98076.59;;;-1.39;42.14
55470;BME280;41334;47.872;16.384;2024-01-16T04:07:24;98073.63;;;-1.61;41.97
55470;BME280;41334;47.872;16.384;2024-01-16T04:12:28;98095.13;;;-1.55;41.52
55470;BME280;41334;47.872;16.384;2024-01-16T04:17:31;98109.03;;;-1.75;41.67
55470;BME280;41334;47.872;16.384;2024-01-16T04:22:33;98116.75;;;-1.58;41.22
55470;BME280;41334;47.872;16.384;2024-01-16T04:27:35;98126.13;;;-1.64;41.19
55470;BME280;41334;47.872;16.384;2024-01-16T04:32:37;98141.72;;;-1.41;41.02
55470;BME280;41334;47.872;16.384;2024-01-16T04:37:39;98158.09;;;-1.65;40.35
55470;BME280;41334;47.872;16.384;2024-01-16T04:42:41;98170.78;;;-1.74;40.81
55470;BME280;41334;47.872;16.384;2024-01-16T04:47:44;98173.47;;;-1.45;41.05
55470;BME280;41334;47.872;16.384;2024-01-16T04:52:46;98181.66;;;-1.45;41.32
55470;BME280;41334;47.872;16.384;2024-01-16T04:57:48;98192.97;;;-1.51;40.56
55470;BME280;41334;47.872;16.384;2024-01-16T05:02:50;98197.88;;;-1.54;40.72
55470;BME280;41334;47.872;16.384;2024-01-16T05:07:53;98216.44;;;-1.50;40.45
55470;BME280;41334;47.872;16.384;2024-01-16T05:12:55;98218.28;;;-1.41;40.35
55470;BME280;41334;47.872;16.384;2024-01-16T05:17:57;98228.50;;;-1.81;40.77
55470;BME280;41334;47.872;16.384;2024-01-16T05:22:59;98212.41;;;-1.58;40.19
55470;BME280;41334;47.872;16.384;2024-01-16T05:28:02;98214.03;;;-1.81;40.67
55470;BME280;41334;47.872;16.384;2024-01-16T05:33:04;98201.47;;;-1.82;39.33
55470;BME280;41334;47.872;16.384;2024-01-16T05:38:06;98226.38;;;-1.60;38.78
55470;BME280;41334;47.872;16.384;2024-01-16T05:43:08;98235.22;;;-1.68;37.18
55470;BME280;41334;47.872;16.384;2024-01-16T05:48:13;98251.78;;;-1.59;36.81
55470;BME280;41334;47.872;16.384;2024-01-16T05:53:16;98246.63;;;-1.61;37.09
55470;BME280;41334;47.872;16.384;2024-01-16T05:58:18;98265.31;;;-1.44;36.59
55470;BME280;41334;47.872;16.384;2024-01-16T06:03:20;98265.06;;;-1.18;36.63
55470;BME280;41334;47.872;16.384;2024-01-16T06:08:21;98268.44;;;-1.56;36.57
55470;BME280;41334;47.872;16.384;2024-01-16T06:13:23;98283.59;;;-1.39;36.87
55470;BME280;41334;47.872;16.384;2024-01-16T06:18:25;98302.44;;;-1.67;37.71
55470;BME280;41334;47.872;16.384;2024-01-16T06:23:27;98322.44;;;-1.42;38.36
55470;BME280;41334;47.872;16.384;2024-01-16T06:28:29;98327.59;;;-1.36;38.52
55470;BME280;41334;47.872;16.384;2024-01-16T06:33:31;98339.47;;;-1.50;38.46
55470;BME280;41334;47.872;16.384;2024-01-16T06:38:33;98349.16;;;-1.63;39.01
55470;BME280;41334;47.872;16.384;2024-01-16T06:43:35;98348.66;;;-1.36;38.60
55470;BME280;41334;47.872;16.384;2024-01-16T06:48:36;98354.69;;;-1.39;38.51
55470;BME280;41334;47.872;16.384;2024-01-16T06:53:40;98362.91;;;-1.39;38.09
55470;BME280;41334;47.872;16.384;2024-01-16T06:58:41;98362.69;;;-0.90;37.42
55470;BME280;41334;47.872;16.384;2024-01-16T07:03:43;98380.16;;;-1.10;38.22
55470;BME280;41334;47.872;16.384;2024-01-16T07:08:45;98382.03;;;-1.10;37.28
55470;BME280;41334;47.872;16.384;2024-01-16T07:13:47;98389.59;;;-0.97;37.47
55470;BME280;41334;47.872;16.384;2024-01-16T07:18:49;98389.84;;;-0.93;36.85
55470;BME280;41334;47.872;16.384;2024-01-16T07:23:52;98388.47;;;-0.96;36.78
55470;BME280;41334;47.872;16.384;2024-01-16T07:28:54;98403.41;;;-0.83;36.09
55470;BME280;41334;47.872;16.384;2024-01-16T07:33:55;98399.06;;;-0.60;36.34
55470;BME280;41334;47.872;16.384;2024-01-16T07:38:58;98413.03;;;-0.62;36.16
55470;BME280;41334;47.872;16.384;2024-01-16T07:44:00;98428.53;;;-0.52;35.17
55470;BME280;41334;47.872;16.384;2024-01-16T07:49:02;98428.56;;;-0.57;35.01
55470;BME280;41334;47.872;16.384;2024-01-16T07:54:09;98449.88;;;-0.49;35.53
55470;BME280;41334;47.872;16.384;2024-01-16T07:59:11;98436.16;;;-0.25;34.89
55470;BME280;41334;47.872;16.384;2024-01-16T08:04:13;98448.34;;;-0.12;34.73
55470;BME280;41334;47.872;16.384;2024-01-16T08:09:15;98453.19;;;-0.04;34.91
55470;BME280;41334;47.872;16.384;2024-01-16T08:14:17;98443.66;;;0.12;35.12
55470;BME280;41334;47.872;16.384;2024-01-16T08:19:19;98454.91;;;-0.08;34.42
55470;BME280;41334;47.872;16.384;2024-01-16T08:24:22;98448.94;;;0.09;34.24
55470;BME280;41334;47.872;16.384;2024-01-16T08:29:24;98462.03;;;0.12;34.18
55470;BME280;41334;47.872;16.384;2024-01-16T08:34:26;98463.50;;;0.04;33.87
55470;BME280;41334;47.872;16.384;2024-01-16T08:39:28;98477.09;;;0.14;34.38
55470;BME280;41334;47.872;16.384;2024-01-16T08:44:30;98489.31;;;0.22;35.25
55470;BME280;41334;47.872;16.384;2024-01-16T08:49:32;98477.06;;;0.57;34.61
55470;BME280;41334;47.872;16.384;2024-01-16T08:54:40;98484.03;;;0.68;33.85
55470;BME280;41334;47.872;16.384;2024-01-16T08:59:42;98490.25;;;0.74;33.89
55470;BME280;41334;47.872;16.384;2024-01-16T09:04:44;98504.56;;;0.90;34.64
55470;BME280;41334;47.872;16.384;2024-01-16T09:09:47;98503.25;;;1.20;34.69
55470;BME280;41334;47.872;16.384;2024-01-16T09:14:49;98513.97;;;0.65;33.03
55470;BME280;41334;47.872;16.384;2024-01-16T09:19:51;98511.34;;;1.11;33.29
55470;BME280;41334;47.872;16.384;2024-01-16T09:24:53;98541.94;;;0.86;32.69
55470;BME280;41334;47.872;16.384;2024-01-16T09:29:55;98511.44;;;1.06;32.07
55470;BME280;41334;47.872;16.384;2024-01-16T09:34:57;98518.19;;;0.76;33.25
55470;BME280;41334;47.872;16.384;2024-01-16T09:40:00;98517.72;;;1.25;32.19
55470;BME280;41334;47.872;16.384;2024-01-16T09:45:02;98523.31;;;1.01;32.44
55470;BME280;41334;47.872;16.384;2024-01-16T09:50:05;98526.47;;;1.27;33.12
55470;BME280;41334;47.872;16.384;2024-01-16T09:55:07;98523.22;;;1.25;31.27
55470;BME280;41334;47.872;16.384;2024-01-16T10:00:10;98528.00;;;1.33;33.01
55470;BME280;41334;47.872;16.384;2024-01-16T10:05:15;98529.72;;;1.62;30.71
55470;BME280;41334;47.872;16.384;2024-01-16T10:10:17;98522.03;;;1.45;30.93
55470;BME280;41334;47.872;16.384;2024-01-16T10:15:35;98511.63;;;1.75;29.33
55470;BME280;41334;47.872;16.384;2024-01-16T10:20:38;98519.25;;;2.19;30.35
55470;BME280;41334;47.872;16.384;2024-01-16T10:25:41;98513.13;;;3.00;29.24
55470;BME280;41334;47.872;16.384;2024-01-16T10:30:43;98508.38;;;2.91;28.94
55470;BME280;41334;47.872;16.384;2024-01-16T10:35:45;98516.16;;;3.12;29.75
55470;BME280;41334;47.872;16.384;2024-01-16T10:40:47;98499.41;;;3.31;27.77
55470;BME280;41334;47.872;16.384;2024-01-16T10:45:51;98515.63;;;2.87;27.43
55470;BME280;41334;47.872;16.384;2024-01-16T10:51:10;98507.63;;;3.44;26.50
55470;BME280;41334;47.872;16.384;2024-01-16T10:56:13;98509.75;;;3.25;27.37
55470;BME280;41334;47.872;16.384;2024-01-16T11:01:18;98508.00;;;3.07;27.46
55470;BME280;41334;47.872;16.384;2024-01-16T11:06:20;98504.56;;;3.01;27.34
55470;BME280;41334;47.872;16.384;2024-01-16T11:11:22;98504.50;;;2.79;27.76
55470;BME280;41334;47.872;16.384;2024-01-16T11:16:26;98504.38;;;3.20;27.19
55470;BME280;41334;47.872;16.384;2024-01-16T11:21:28;98498.84;;;3.20;28.17
55470;BME280;41334;47.872;16.384;2024-01-16T11:26:35;98489.72;;;3.33;25.89
55470;BME280;41334;47.872;16.384;2024-01-16T11:31:44;98489.34;;;3.49;28.48
55470;BME280;41334;47.872;16.384;2024-01-16T11:36:52;98489.16;;;3.23;26.47
55470;BME280;41334;47.872;16.384;2024-01-16T11:41:58;98489.16;;;3.45;26.18
55470;BME280;41334;47.872;16.384;2024-01-16T11:47:01;98487.81;;;3.42;27.13
55470;BME280;41334;47.872;16.384;2024-01-16T11:52:04;98473.94;;;3.25;27.60
55470;BME280;41334;47.872;16.384;2024-01-16T12:02:14;98478.13;;;2.78;25.82
55470;BME280;41334;47.872;16.384;2024-01-16T12:07:19;98471.56;;;3.10;26.33
55470;BME280;41334;47.872;16.384;2024-01-16T12:12:21;98468.84;;;3.41;27.23
55470;BME280;41334;47.872;16.384;2024-01-16T12:17:23;98453.94;;;3.42;26.08
55470;BME280;41334;47.872;16.384;2024-01-16T12:22:26;98454.06;;;3.37;25.37
55470;BME280;41334;47.872;16.384;2024-01-16T12:27:28;98447.13;;;3.70;25.92
55470;BME280;41334;47.872;16.384;2024-01-16T12:32:30;98443.78;;;3.91;28.11
55470;BME280;41334;47.872;16.384;2024-01-16T12:37:32;98438.56;;;3.89;26.14
55470;BME280;41334;47.872;16.384;2024-01-16T12:42:35;98434.91;;;4.03;27.40
55470;BME280;41334;47.872;16.384;2024-01-16T12:47:37;98431.84;;;4.21;27.73
55470;BME280;41334;47.872;16.384;2024-01-16T12:52:42;98429.81;;;4.36;24.97
55470;BME280;41334;47.872;16.384;2024-01-16T12:57:44;98424.63;;;4.60;24.46
55470;BME280;41334;47.872;16.384;2024-01-16T13:02:51;98430.94;;;4.43;25.14
55470;BME280;41334;47.872;16.384;2024-01-16T13:08:03;98420.72;;;4.96;26.12
55470;BME280;41334;47.872;16.384;2024-01-16T13:13:15;98421.78;;;4.17;24.19
55470;BME280;41334;47.872;16.384;2024-01-16T13:18:22;98418.44;;;4.37;24.39
55470;BME280;41334;47.872;16.384;2024-01-16T13:23:26;98409.59;;;4.09;25.93
55470;BME280;41334;47.872;16.384;2024-01-16T13:28:29;98418.28;;;3.85;25.15
55470;BME280;41334;47.872;16.384;2024-01-16T13:33:31;98409.50;;;4.49;27.02
55470;BME280;41334;47.872;16.384;2024-01-16T13:38:34;98417.00;;;4.40;26.01
55470;BME280;41334;47.872;16.384;2024-01-16T13:43:36;98416.19;;;4.39;26.95
55470;BME280;41334;47.872;16.384;2024-01-16T13:48:39;98409.81;;;4.30;25.05
55470;BME280;41334;47.872;16.384;2024-01-16T13:53:42;98412.41;;;4.27;26.00
55470;BME280;41334;47.872;16.384;2024-01-16T13:58:45;98424.97;;;3.53;27.46
55470;BME280;41334;47.872;16.384;2024-01-16T14:03:47;98414.59;;;3.50;27.76
55470;BME280;41334;47.872;16.384;2024-01-16T14:08:49;98408.81;;;3.29;28.27
55470;BME280;41334;47.872;16.384;2024-01-16T14:13:51;98405.00;;;3.48;26.91
55470;BME280;41334;47.872;16.384;2024-01-16T14:18:57;98402.44;;;3.20;26.50
55470;BME280;41334;47.872;16.384;2024-01-16T14:24:02;98392.34;;;3.15;29.04
55470;BME280;41334;47.872;16.384;2024-01-16T14:29:04;98410.03;;;3.14;30.93
55470;BME280;41334;47.872;16.384;2024-01-16T14:34:10;98410.47;;;3.08;30.34
55470;BME280;41334;47.872;16.384;2024-01-16T14:39:15;98405.66;;;2.91;30.98
55470;BME280;41334;47.872;16.384;2024-01-16T14:44:19;98403.38;;;2.84;31.29
55470;BME280;41334;47.872;16.384;2024-01-16T14:49:21;98405.72;;;2.55;31.32
55470;BME280;41334;47.872;16.384;2024-01-16T14:54:24;98408.66;;;2.58;32.46
55470;BME280;41334;47.872;16.384;2024-01-16T14:59:26;98418.53;;;2.37;33.62
55470;BME280;41334;47.872;16.384;2024-01-16T15:04:28;98415.19;;;2.12;32.97
55470;BME280;41334;47.872;16.384;2024-01-16T15:09:30;98429.25;;;2.11;34.00
55470;BME280;41334;47.872;16.384;2024-01-16T15:14:33;98425.19;;;1.95;33.52
55470;BME280;41334;47.872;16.384;2024-01-16T15:19:36;98421.63;;;1.67;33.79
55470;BME280;41334;47.872;16.384;2024-01-16T15:24:39;98436.06;;;1.58;34.41
55470;BME280;41334;47.872;16.384;2024-01-16T15:29:41;98444.38;;;1.40;34.91
55470;BME280;41334;47.872;16.384;2024-01-16T15:34:44;98452.84;;;1.43;35.37
55470;BME280;41334;47.872;16.384;2024-01-16T15:39:46;98455.78;;;1.33;35.43
55470;BME280;41334;47.872;16.384;2024-01-16T15:44:48;98469.59;;;1.28;35.71
55470;BME280;41334;47.872;16.384;2024-01-16T15:49:50;98479.13;;;1.17;35.44
55470;BME280;41334;47.872;16.384;2024-01-16T15:54:52;98464.13;;;0.95;35.15
55470;BME280;41334;47.872;16.384;2024-01-16T15:59:55;98467.91;;;0.99;35.64
55470;BME280;41334;47.872;16.384;2024-01-16T16:04:58;98477.84;;;0.95;35.49
55470;BME280;41334;47.872;16.384;2024-01-16T16:10:00;98486.41;;;1.07;35.79
55470;BME280;41334;47.872;16.384;2024-01-16T16:15:03;98488.66;;;1.05;36.03
55470;BME280;41334;47.872;16.384;2024-01-16T16:20:06;98492.25;;;0.87;36.39
55470;BME280;41334;47.872;16.384;2024-01-16T16:25:11;98488.25;;;0.79;36.42
55470;BME280;41334;47.872;16.384;2024-01-16T16:30:13;98460.94;;;0.69;36.94
55470;BME280;41334;47.872;16.384;2024-01-16T16:35:15;98462.06;;;0.49;37.00
55470;BME280;41334;47.872;16.384;2024-01-16T16:40:17;98467.78;;;0.34;36.70
55470;BME280;41334;47.872;16.384;2024-01-16T16:45:19;98472.38;;;0.20;37.01
55470;BME280;41334;47.872;16.384;2024-01-16T16:50:21;98456.91;;;0.05;37.65
55470;BME280;41334;47.872;16.384;2024-01-16T16:55:23;98459.06;;;-0.16;37.78
55470;BME280;41334;47.872;16.384;2024-01-16T17:00:25;98456.09;;;-0.43;38.72
55470;BME280;41334;47.872;16.384;2024-01-16T17:05:28;98460.63;;;-0.58;39.34
55470;BME280;41334;47.872;16.384;2024-01-16T17:10:31;98462.19;;;-0.76;38.71
55470;BME280;41334;47.872;16.384;2024-01-16T17:15:33;98444.19;;;-0.82;38.56
55470;BME280;41334;47.872;16.384;2024-01-16T17:20:35;98440.41;;;-0.91;39.51
55470;BME280;41334;47.872;16.384;2024-01-16T17:25:37;98448.38;;;-0.94;38.96
55470;BME280;41334;47.872;16.384;2024-01-16T17:30:39;98445.69;;;-1.00;38.17
55470;BME280;41334;47.872;16.384;2024-01-16T17:35:41;98450.09;;;-0.98;38.57
55470;BME280;41334;47.872;16.384;2024-01-16T17:40:43;98444.31;;;-0.97;38.81
55470;BME280;41334;47.872;16.384;2024-01-16T17:45:46;98440.59;;;-1.11;39.44
55470;BME280;41334;47.872;16.384;2024-01-16T17:50:48;98435.28;;;-1.32;38.32
55470;BME280;41334;47.872;16.384;2024-01-16T17:55:50;98429.44;;;-1.15;38.30
55470;BME280;41334;47.872;16.384;2024-01-16T18:00:52;98430.25;;;-1.14;38.66
55470;BME280;41334;47.872;16.384;2024-01-16T18:05:55;98424.91;;;-1.01;38.63
55470;BME280;41334;47.872;16.384;2024-01-16T18:10:57;98423.66;;;-1.13;39.02
55470;BME280;41334;47.872;16.384;2024-01-16T18:15:59;98424.81;;;-1.19;39.25
55470;BME280;41334;47.872;16.384;2024-01-16T18:21:06;98421.50;;;-1.16;39.51
55470;BME280;41334;47.872;16.384;2024-01-16T18:26:12;98416.41;;;-1.28;39.52
55470;BME280;41334;47.872;16.384;2024-01-16T18:31:13;98427.28;;;-1.57;40.07
55470;BME280;41334;47.872;16.384;2024-01-16T18:36:19;98431.53;;;-1.80;40.49
55470;BME280;41334;47.872;16.384;2024-01-16T18:41:21;98433.78;;;-1.92;40.42
55470;BME280;41334;47.872;16.384;2024-01-16T18:46:23;98424.34;;;-2.15;40.82
55470;BME280;41334;47.872;16.384;2024-01-16T18:51:27;98429.22;;;-2.07;40.97
55470;BME280;41334;47.872;16.384;2024-01-16T18:56:28;98421.56;;;-2.05;40.97
55470;BME280;41334;47.872;16.384;2024-01-16T19:01:30;98416.97;;;-2.15;41.36
55470;BME280;41334;47.872;16.384;2024-01-16T19:06:32;98415.69;;;-2.33;42.05
55470;BME280;41334;47.872;16.384;2024-01-16T19:11:35;98412.72;;;-2.46;42.48
55470;BME280;41334;47.872;16.384;2024-01-16T19:16:36;98406.78;;;-2.59;42.97
55470;BME280;41334;47.872;16.384;2024-01-16T19:21:38;98402.94;;;-2.58;43.19
55470;BME280;41334;47.872;16.384;2024-01-16T19:26:42;98404.91;;;-2.68;43.76
55470;BME280;41334;47.872;16.384;2024-01-16T19:31:45;98408.19;;;-2.81;44.88
55470;BME280;41334;47.872;16.384;2024-01-16T19:36:48;98404.91;;;-2.68;44.83
55470;BME280;41334;47.872;16.384;2024-01-16T19:41:55;98393.41;;;-2.70;44.54
55470;BME280;41334;47.872;16.384;2024-01-16T19:46:58;98403.31;;;-2.95;44.99
55470;BME280;41334;47.872;16.384;2024-01-16T19:52:01;98402.75;;;-2.92;44.81
55470;BME280;41334;47.872;16.384;2024-01-16T19:57:04;98409.28;;;-2.82;44.49
55470;BME280;41334;47.872;16.384;2024-01-16T20:02:07;98418.84;;;-2.75;44.39
55470;BME280;41334;47.872;16.384;2024-01-16T20:07:12;98422.38;;;-2.74;44.29
55470;BME280;41334;47.872;16.384;2024-01-16T20:12:15;98409.81;;;-2.75;44.27
55470;BME280;41334;47.872;16.384;2024-01-16T20:17:22;98418.00;;;-2.75;43.96
55470;BME280;41334;47.872;16.384;2024-01-16T20:22:23;98407.13;;;-2.86;44.15
55470;BME280;41334;47.872;16.384;2024-01-16T20:27:25;98404.69;;;-2.97;44.82
55470;BME280;41334;47.872;16.384;2024-01-16T20:32:28;98399.22;;;-3.02;44.73
55470;BME280;41334;47.872;16.384;2024-01-16T20:37:30;98392.72;;;-3.12;44.42
55470;BME280;41334;47.872;16.384;2024-01-16T20:42:32;98388.09;;;-3.37;44.89
55470;BME280;41334;47.872;16.384;2024-01-16T20:47:36;98385.94;;;-3.55;45.40
55470;BME280;41334;47.872;16.384;2024-01-16T20:52:38;98381.28;;;-3.75;45.49
55470;BME280;41334;47.872;16.384;2024-01-16T20:57:40;98380.47;;;-3.80;45.45
55470;BME280;41334;47.872;16.384;2024-01-16T21:02:44;98373.91;;;-3.84;45.40
55470;BME280;41334;47.872;16.384;2024-01-16T21:07:46;98381.53;;;-3.97;45.58
55470;BME280;41334;47.872;16.384;2024-01-16T21:12:48;98389.13;;;-4.04;46.95
55470;BME280;41334;47.872;16.384;2024-01-16T21:17:50;98373.34;;;-4.12;47.07
55470;BME280;41334;47.872;16.384;2024-01-16T21:23:06;98364.59;;;-4.24;47.13
55470;BME280;41334;47.872;16.384;2024-01-16T21:28:09;98357.25;;;-4.24;46.80
55470;BME280;41334;47.872;16.384;2024-01-16T21:33:11;98344.19;;;-4.17;46.01
55470;BME280;41334;47.872;16.384;2024-01-16T21:38:14;98337.91;;;-4.32;46.29
55470;BME280;41334;47.872;16.384;2024-01-16T21:43:18;98348.50;;;-4.31;47.06
55470;BME280;41334;47.872;16.384;2024-01-16T21:48:20;98349.06;;;-4.29;47.49
55470;BME280;41334;47.872;16.384;2024-01-16T21:53:22;98337.91;;;-4.27;47.53
55470;BME280;41334;47.872;16.384;2024-01-16T21:58:24;98338.19;;;-4.24;47.57
55470;BME280;41334;47.872;16.384;2024-01-16T22:03:28;98336.53;;;-4.25;47.11
55470;BME280;41334;47.872;16.384;2024-01-16T22:08:29;98325.91;;;-4.36;46.44
55470;BME280;41334;47.872;16.384;2024-01-16T22:13:31;98323.97;;;-4.41;46.08
55470;BME280;41334;47.872;16.384;2024-01-16T22:18:34;98321.78;;;-4.54;46.33
55470;BME280;41334;47.872;16.384;2024-01-16T22:23:36;98308.94;;;-4.74;46.58
55470;BME280;41334;47.872;16.384;2024-01-16T22:28:38;98289.84;;;-4.84;46.28
55470;BME280;41334;47.872;16.384;2024-01-16T22:33:45;98293.34;;;-4.94;46.70
55470;BME280;41334;47.872;16.384;2024-01-16T22:38:47;98280.84;;;-4.95;46.67
55470;BME280;41334;47.872;16.384;2024-01-16T22:43:49;98280.53;;;-5.09;46.74
55470;BME280;41334;47.872;16.384;2024-01-16T22:48:51;98294.38;;;-5.10;46.86
55470;BME280;41334;47.872;16.384;2024-01-16T22:53:53;98294.34;;;-5.15;46.70
55470;BME280;41334;47.872;16.384;2024-01-16T22:58:55;98291.84;;;-5.27;47.29
55470;BME280;41334;47.872;16.384;2024-01-16T23:03:59;98283.41;;;-5.31;46.90
55470;BME280;41334;47.872;16.384;2024-01-16T23:09:03;98270.03;;;-5.37;46.77
55470;BME280;41334;47.872;16.384;2024-01-16T23:14:07;98265.19;;;-5.35;47.01
55470;BME280;41334;47.872;16.384;2024-01-16T23:19:09;98255.06;;;-5.45;47.34
55470;BME280;41334;47.872;16.384;2024-01-16T23:24:12;98250.94;;;-5.53;47.06
55470;BME280;41334;47.872;16.384;2024-01-16T23:29:14;98251.66;;;-5.72;47.63
55470;BME280;41334;47.872;16.384;2024-01-16T23:34:16;98238.63;;;-5.70;47.64
55470;BME280;41334;47.872;16.384;2024-01-16T23:39:18;98227.72;;;-5.76;47.66
55470;BME280;41334;47.872;16.384;2024-01-16T23:44:19;98223.63;;;-5.83;48.83
55470;BME280;41334;47.872;16.384;2024-01-16T23:49:21;98208.41;;;-5.89;48.25
55470;BME280;41334;47.872;16.384;2024-01-16T23:54:23;98199.63;;;-5.96;48.29
55470;BME280;41334;47.872;16.384;2024-01-16T23:59:25;98195.22;;;-6.08;48.15
